createdAt,value
2022-12-08T00:00:49.101Z,24.96
2022-12-08T00:03:18.769Z,24.94
2022-12-08T00:06:07.979Z,24.80
2022-12-08T00:08:56.254Z,24.70
2022-12-08T00:11:26.501Z,24.63
2022-12-08T00:13:56.599Z,24.64
2022-12-08T00:16:26.467Z,24.64
2022-12-08T00:18:56.126Z,24.59
2022-12-08T00:21:25.652Z,24.60
2022-12-08T00:23:57.510Z,24.59
2022-12-08T00:26:27.762Z,24.59
2022-12-08T00:28:57.565Z,24.50
2022-12-08T00:31:27.124Z,24.46
2022-12-08T00:33:56.756Z,24.43
2022-12-08T00:36:26.571Z,24.34
2022-12-08T00:38:56.662Z,24.26
2022-12-08T00:41:46.773Z,24.21
2022-12-08T00:44:19.929Z,24.20
2022-12-08T00:46:50.571Z,24.14
2022-12-08T00:49:20.245Z,24.09
2022-12-08T00:51:52.466Z,24.03
2022-12-08T00:54:24.198Z,23.96
2022-12-08T00:56:54.305Z,23.92
2022-12-08T00:59:23.879Z,23.89
2022-12-08T01:01:53.461Z,23.88
2022-12-08T01:04:23.710Z,23.92
2022-12-08T01:06:53.466Z,23.95
2022-12-08T01:09:24.226Z,23.86
2022-12-08T01:11:53.957Z,23.78
2022-12-08T01:14:23.541Z,23.69
2022-12-08T01:16:53.409Z,23.71
2022-12-08T01:19:23.016Z,23.69
2022-12-08T01:21:52.882Z,23.63
2022-12-08T01:24:22.882Z,23.62
2022-12-08T01:26:52.749Z,23.59
2022-12-08T01:29:22.301Z,23.57
2022-12-08T01:31:51.823Z,23.57
2022-12-08T01:34:21.346Z,23.58
2022-12-08T01:36:51.376Z,23.61
2022-12-08T01:39:21.181Z,23.58
2022-12-08T01:41:50.803Z,23.51
2022-12-08T01:44:20.281Z,23.48
2022-12-08T01:46:50.013Z,23.42
2022-12-08T01:49:33.190Z,23.40
2022-12-08T01:52:08.611Z,23.42
2022-12-08T01:54:47.143Z,23.38
2022-12-08T01:57:24.803Z,23.40
2022-12-08T02:00:09.359Z,23.35
2022-12-08T02:02:59.558Z,23.32
2022-12-08T02:05:35.232Z,23.24
2022-12-08T02:08:08.330Z,23.18
2022-12-08T02:10:42.421Z,23.18
2022-12-08T02:13:19.066Z,23.21
2022-12-08T02:16:09.472Z,23.20
2022-12-08T02:19:28.627Z,23.11
2022-12-08T02:22:16.102Z,23.17
2022-12-08T02:24:55.820Z,23.21
2022-12-08T02:28:02.426Z,23.24
2022-12-08T02:30:56.131Z,23.21
2022-12-08T02:34:05.499Z,23.15
2022-12-08T02:36:38.069Z,22.99
2022-12-08T02:39:10.567Z,22.96
2022-12-08T02:41:56.455Z,22.87
2022-12-08T02:44:55.429Z,22.89
2022-12-08T02:47:26.562Z,22.92
2022-12-08T02:49:59.442Z,22.92
2022-12-08T02:52:29.082Z,22.90
2022-12-08T02:55:03.672Z,22.90
2022-12-08T02:57:41.118Z,22.89
2022-12-08T03:00:13.773Z,22.83
2022-12-08T03:03:04.531Z,22.84
2022-12-08T03:06:01.680Z,22.84
2022-12-08T03:08:57.663Z,22.84
2022-12-08T03:11:50.667Z,22.83
2022-12-08T03:14:22.823Z,22.77
2022-12-08T03:16:57.258Z,22.73
2022-12-08T03:19:40.886Z,22.67
2022-12-08T03:22:12.153Z,22.66
2022-12-08T03:24:45.437Z,22.64
2022-12-08T03:27:22.183Z,22.70
2022-12-08T03:29:55.689Z,22.69
2022-12-08T03:32:45.433Z,22.64
2022-12-08T03:35:18.645Z,22.60
2022-12-08T03:37:48.989Z,22.53
2022-12-08T03:40:22.007Z,22.53
2022-12-08T03:42:51.704Z,22.51
2022-12-08T03:45:21.191Z,22.52
2022-12-08T03:47:50.695Z,22.51
2022-12-08T03:50:20.419Z,22.56
2022-12-08T03:52:50.925Z,22.62
2022-12-08T03:55:21.001Z,22.63
2022-12-08T03:57:50.472Z,22.56
2022-12-08T04:00:20.197Z,22.53
2022-12-08T04:02:49.969Z,22.43
2022-12-08T04:05:19.827Z,22.42
2022-12-08T04:07:49.351Z,22.42
2022-12-08T04:10:18.970Z,22.45
2022-12-08T04:12:48.434Z,22.42
2022-12-08T04:15:17.921Z,22.43
2022-12-08T04:17:47.399Z,22.42
2022-12-08T04:20:17.254Z,22.36
2022-12-08T04:22:46.811Z,22.38
2022-12-08T04:25:16.604Z,22.36
2022-12-08T04:27:46.117Z,22.24
2022-12-08T04:30:15.638Z,22.31
2022-12-08T04:32:47.575Z,22.35
2022-12-08T04:35:17.991Z,22.31
2022-12-08T04:37:47.517Z,22.28
2022-12-08T04:40:17.510Z,22.26
2022-12-08T04:42:47.414Z,22.26
2022-12-08T04:45:17.626Z,22.18
2022-12-08T04:47:47.178Z,22.16
2022-12-08T04:50:16.749Z,22.15
2022-12-08T04:52:46.244Z,22.16
2022-12-08T04:55:15.819Z,22.21
2022-12-08T04:57:46.545Z,22.19
2022-12-08T05:00:17.782Z,22.19
2022-12-08T05:02:47.683Z,22.15
2022-12-08T05:05:17.360Z,22.14
2022-12-08T05:07:46.904Z,22.05
2022-12-08T05:10:16.682Z,22.04
2022-12-08T05:12:46.182Z,22.00
2022-12-08T05:15:15.952Z,21.98
2022-12-08T05:17:45.405Z,21.95
2022-12-08T05:20:15.120Z,21.93
2022-12-08T05:22:44.835Z,21.93
2022-12-08T05:25:14.542Z,21.85
2022-12-08T05:27:44.565Z,21.80
2022-12-08T05:30:14.465Z,21.75
2022-12-08T05:32:44.012Z,21.75
2022-12-08T05:35:13.547Z,21.78
2022-12-08T05:37:43.076Z,21.75
2022-12-08T05:40:12.715Z,21.78
2022-12-08T05:42:43.567Z,21.75
2022-12-08T05:45:13.296Z,21.75
2022-12-08T05:47:42.964Z,21.71
2022-12-08T05:50:12.637Z,21.71
2022-12-08T05:52:42.132Z,21.73
2022-12-08T05:55:12.064Z,21.73
2022-12-08T05:57:41.797Z,21.68
2022-12-08T06:00:12.674Z,21.65
2022-12-08T06:02:42.777Z,21.64
2022-12-08T06:05:13.260Z,21.58
2022-12-08T06:07:42.780Z,21.56
2022-12-08T06:10:12.849Z,21.60
2022-12-08T06:12:42.854Z,21.56
2022-12-08T06:15:12.578Z,21.56
2022-12-08T06:17:42.352Z,21.53
2022-12-08T06:20:12.117Z,21.53
2022-12-08T06:22:41.687Z,21.56
2022-12-08T06:25:11.813Z,21.49
2022-12-08T06:27:41.298Z,21.44
2022-12-08T06:30:11.026Z,21.44
2022-12-08T06:32:40.528Z,21.43
2022-12-08T06:35:10.505Z,21.37
2022-12-08T06:37:40.275Z,21.33
2022-12-08T06:40:10.309Z,21.39
2022-12-08T06:42:46.481Z,21.46
2022-12-08T06:45:18.523Z,21.36
2022-12-08T06:47:48.310Z,21.33
2022-12-08T06:50:18.098Z,21.30
2022-12-08T06:52:59.531Z,21.27
2022-12-08T06:55:57.755Z,21.33
2022-12-08T06:58:22.932Z,21.36
2022-12-08T07:00:52.826Z,21.29
2022-12-08T07:03:22.808Z,21.29
2022-12-08T07:06:00.345Z,21.23
2022-12-08T07:08:34.761Z,21.26
2022-12-08T07:11:15.286Z,21.23
2022-12-08T07:13:47.899Z,21.19
2022-12-08T07:16:17.810Z,21.19
2022-12-08T07:18:47.347Z,21.20
2022-12-08T07:21:18.614Z,21.19
2022-12-08T07:23:56.016Z,21.16
2022-12-08T07:26:28.321Z,21.18
2022-12-08T07:28:57.817Z,21.16
2022-12-08T07:31:29.581Z,21.13
2022-12-08T07:34:00.096Z,21.19
2022-12-08T07:36:29.980Z,21.16
2022-12-08T07:38:59.533Z,21.13
2022-12-08T07:41:29.280Z,21.10
2022-12-08T07:43:59.196Z,21.12
2022-12-08T07:46:29.152Z,21.10
2022-12-08T07:48:58.763Z,21.09
2022-12-08T07:51:28.712Z,21.05
2022-12-08T07:53:58.171Z,21.02
2022-12-08T07:56:27.783Z,21.03
2022-12-08T07:58:57.353Z,21.09
2022-12-08T08:01:29.763Z,21.03
2022-12-08T08:04:03.004Z,21.02
2022-12-08T08:06:36.013Z,21.03
2022-12-08T08:09:06.339Z,21.02
2022-12-08T08:11:35.856Z,21.00
2022-12-08T08:14:05.888Z,20.94
2022-12-08T08:16:38.537Z,20.92
2022-12-08T08:19:08.523Z,20.95
2022-12-08T08:21:45.664Z,21.00
2022-12-08T08:24:16.242Z,21.03
2022-12-08T08:26:46.178Z,21.05
2022-12-08T08:29:16.082Z,21.03
2022-12-08T08:31:45.554Z,21.02
2022-12-08T08:34:15.511Z,21.06
2022-12-08T08:36:45.161Z,21.02
2022-12-08T08:39:15.431Z,21.00
2022-12-08T08:41:44.965Z,21.03
2022-12-08T08:44:16.188Z,21.07
2022-12-08T08:46:45.783Z,21.02
2022-12-08T08:49:15.348Z,21.10
2022-12-08T08:51:45.327Z,21.09
2022-12-08T08:54:14.843Z,21.16
2022-12-08T08:56:44.853Z,21.43
2022-12-08T08:59:14.475Z,21.71
2022-12-08T09:01:44.112Z,22.01
2022-12-08T09:04:13.780Z,22.36
2022-12-08T09:06:46.489Z,22.66
2022-12-08T09:09:17.596Z,22.89
2022-12-08T09:11:48.253Z,23.10
2022-12-08T09:14:18.327Z,23.34
2022-12-08T09:16:48.231Z,23.52
2022-12-08T09:19:18.044Z,23.81
2022-12-08T09:21:48.055Z,24.06
2022-12-08T09:24:17.816Z,24.14
2022-12-08T09:26:48.298Z,24.49
2022-12-08T09:29:18.816Z,24.81
2022-12-08T09:31:48.836Z,25.07
2022-12-08T09:34:18.876Z,25.25
2022-12-08T09:36:48.425Z,25.53
2022-12-08T09:39:18.110Z,25.71
2022-12-08T09:41:51.350Z,26.05
2022-12-08T09:44:44.186Z,26.22
2022-12-08T09:47:44.103Z,26.44
2022-12-08T09:50:32.075Z,26.60
2022-12-08T09:53:13.729Z,26.76
2022-12-08T09:55:46.481Z,27.10
2022-12-08T09:58:52.979Z,27.40
2022-12-08T10:01:28.511Z,27.77
2022-12-08T10:03:59.026Z,28.20
2022-12-08T10:07:08.779Z,28.57
2022-12-08T10:09:53.496Z,28.66
2022-12-08T10:12:27.986Z,28.97
2022-12-08T10:15:18.355Z,29.32
2022-12-08T10:17:53.155Z,29.73
2022-12-08T10:20:32.554Z,29.97
2022-12-08T10:23:20.232Z,30.02
2022-12-08T10:25:54.831Z,30.31
2022-12-08T10:28:24.884Z,30.62
2022-12-08T10:30:55.042Z,31.02
2022-12-08T10:33:25.270Z,31.41
2022-12-08T10:35:59.406Z,31.63
2022-12-08T10:38:36.395Z,32.01
2022-12-08T10:41:12.453Z,32.49
2022-12-08T10:43:50.909Z,32.59
2022-12-08T10:46:26.919Z,32.25
2022-12-08T10:49:08.473Z,31.78
2022-12-08T10:51:44.576Z,32.27
2022-12-08T10:54:36.895Z,31.47
2022-12-08T10:57:06.707Z,31.71
2022-12-08T10:59:36.715Z,32.65
2022-12-08T11:02:19.557Z,33.28
2022-12-08T11:05:00.263Z,32.96
2022-12-08T11:07:30.312Z,32.28
2022-12-08T11:10:02.475Z,32.43
2022-12-08T11:12:33.279Z,32.68
2022-12-08T11:15:04.585Z,32.99
2022-12-08T11:17:40.958Z,33.96
2022-12-08T11:20:12.075Z,34.33
2022-12-08T11:22:45.422Z,34.22
2022-12-08T11:25:25.978Z,33.45
2022-12-08T11:28:03.807Z,33.28
2022-12-08T11:30:39.278Z,33.95
2022-12-08T11:33:29.794Z,34.88
2022-12-08T11:36:05.368Z,35.04
2022-12-08T11:38:38.992Z,34.33
2022-12-08T11:41:23.157Z,34.49
2022-12-08T11:44:07.015Z,34.44
2022-12-08T11:46:52.884Z,33.41
2022-12-08T11:49:22.870Z,34.44
2022-12-08T11:52:18.409Z,34.63
2022-12-08T11:55:04.144Z,34.79
2022-12-08T11:57:34.196Z,35.62
2022-12-08T12:00:05.260Z,36.00
2022-12-08T12:02:47.290Z,36.67
2022-12-08T12:06:05.285Z,35.90
2022-12-08T12:08:59.773Z,35.71
2022-12-08T12:12:17.773Z,36.61
2022-12-08T12:15:06.225Z,37.73
2022-12-08T12:17:49.441Z,37.90
2022-12-08T12:20:33.902Z,37.63
2022-12-08T12:23:31.250Z,37.86
2022-12-08T12:26:06.974Z,37.73
2022-12-08T12:28:53.682Z,37.94
2022-12-08T12:31:30.960Z,37.70
2022-12-08T12:34:19.082Z,38.55
2022-12-08T12:36:57.238Z,39.29
2022-12-08T12:39:32.565Z,39.75
2022-12-08T12:42:05.791Z,39.81
2022-12-08T12:44:36.658Z,39.30
2022-12-08T12:47:12.426Z,39.63
2022-12-08T12:49:42.105Z,38.96
2022-12-08T12:52:17.230Z,38.78
2022-12-08T12:55:06.898Z,39.16
2022-12-08T12:58:05.042Z,39.53
2022-12-08T13:00:35.674Z,39.63
2022-12-08T13:03:05.358Z,40.32
2022-12-08T13:05:51.749Z,39.68
2022-12-08T13:08:25.260Z,40.89
2022-12-08T13:11:06.203Z,41.11
2022-12-08T13:13:36.631Z,40.45
2022-12-08T13:16:19.393Z,40.53
2022-12-08T13:18:54.637Z,41.14
2022-12-08T13:21:27.004Z,39.65
2022-12-08T13:24:20.904Z,37.97
2022-12-08T13:27:12.404Z,40.04
2022-12-08T13:29:42.716Z,41.26
2022-12-08T13:32:12.196Z,40.67
2022-12-08T13:34:57.014Z,40.97
2022-12-08T13:38:02.910Z,41.77
2022-12-08T13:40:35.564Z,40.01
2022-12-08T13:43:15.250Z,41.00
2022-12-08T13:46:52.246Z,41.82
2022-12-08T13:55:35.477Z,42.63
2022-12-08T13:57:38.689Z,43.34
2022-12-08T14:00:35.915Z,43.22
2022-12-08T14:03:06.031Z,43.52
2022-12-08T14:08:59.919Z,43.53
2022-12-08T14:11:36.523Z,43.55
2022-12-08T14:14:11.091Z,43.92
2022-12-08T14:16:43.618Z,43.83
2022-12-08T14:19:24.079Z,44.19
2022-12-08T14:21:58.131Z,41.96
2022-12-08T14:24:30.068Z,42.35
2022-12-08T14:27:07.482Z,42.84
2022-12-08T14:29:59.877Z,43.53
2022-12-08T14:32:32.591Z,44.19
2022-12-08T14:35:11.317Z,44.24
2022-12-08T14:37:47.575Z,44.04
2022-12-08T14:40:23.064Z,44.72
2022-12-08T14:43:06.892Z,43.80
2022-12-08T14:45:47.774Z,44.37
2022-12-08T14:48:28.836Z,44.40
2022-12-08T14:51:19.664Z,44.70
2022-12-08T14:54:15.795Z,44.81
2022-12-08T14:56:56.123Z,44.70
2022-12-08T14:59:31.491Z,43.55
2022-12-08T15:02:27.457Z,45.36
2022-12-08T15:05:18.570Z,46.21
2022-12-08T15:08:01.283Z,42.84
2022-12-08T15:10:39.020Z,40.41
2022-12-08T15:13:23.525Z,38.75
2022-12-08T15:15:58.815Z,37.63
2022-12-08T15:18:42.242Z,41.20
2022-12-08T15:21:14.024Z,40.73
2022-12-08T15:23:50.294Z,41.72
2022-12-08T15:26:25.895Z,43.94
2022-12-08T15:28:56.701Z,44.71
2022-12-08T15:31:26.267Z,45.40
2022-12-08T15:33:56.244Z,44.12
2022-12-08T15:36:25.753Z,42.27
2022-12-08T15:38:55.680Z,44.33
2022-12-08T15:41:25.195Z,44.28
2022-12-08T15:43:54.712Z,42.25
2022-12-08T15:46:24.237Z,40.60
2022-12-08T15:48:57.924Z,39.65
2022-12-08T15:51:28.522Z,40.59
2022-12-08T15:53:58.327Z,41.27
2022-12-08T15:56:28.480Z,42.50
2022-12-08T15:58:58.663Z,43.62
2022-12-08T16:01:28.980Z,43.43
2022-12-08T16:07:20.881Z,41.15
2022-12-08T16:09:43.162Z,39.60
2022-12-08T16:13:48.049Z,38.75
2022-12-08T16:15:59.413Z,38.03
2022-12-08T16:18:34.639Z,37.93
2022-12-08T16:21:13.903Z,37.43
2022-12-08T16:23:55.054Z,36.79
2022-12-08T16:27:22.014Z,36.30
2022-12-08T16:29:21.992Z,35.62
2022-12-08T16:31:52.934Z,35.18
2022-12-08T16:34:22.811Z,34.81
2022-12-08T16:36:53.543Z,33.89
2022-12-08T16:39:23.753Z,31.66
2022-12-08T16:42:19.741Z,30.41
2022-12-08T16:44:49.426Z,29.66
2022-12-08T16:47:19.042Z,29.41
2022-12-08T16:49:49.074Z,29.35
2022-12-08T16:52:19.454Z,29.24
2022-12-08T16:54:49.552Z,29.24
2022-12-08T16:57:19.056Z,29.21
2022-12-08T16:59:48.570Z,29.16
2022-12-08T17:02:19.029Z,29.26
2022-12-08T17:04:49.401Z,30.06
2022-12-08T17:07:19.212Z,30.74
2022-12-08T17:09:48.763Z,31.67
2022-12-08T17:12:18.274Z,34.67
2022-12-08T17:14:47.842Z,36.37
2022-12-08T17:17:17.656Z,37.33
2022-12-08T17:19:47.745Z,37.96
2022-12-08T17:22:17.891Z,38.23
2022-12-08T17:24:47.414Z,38.72
2022-12-08T17:27:16.929Z,39.02
2022-12-08T17:29:46.669Z,38.66
2022-12-08T17:32:16.283Z,39.00
2022-12-08T17:34:46.327Z,39.47
2022-12-08T17:37:16.393Z,40.00
2022-12-08T17:39:46.276Z,40.48
2022-12-08T17:42:15.973Z,40.87
2022-12-08T17:44:48.624Z,41.06
2022-12-08T17:47:19.117Z,40.93
2022-12-08T17:49:48.731Z,40.01
2022-12-08T17:52:18.291Z,39.70
2022-12-08T17:54:47.797Z,40.02
2022-12-08T17:57:17.316Z,40.19
2022-12-08T17:59:47.318Z,40.33
2022-12-08T18:02:16.853Z,39.68
2022-12-08T18:04:46.605Z,39.80
2022-12-08T18:07:16.154Z,40.04
2022-12-08T18:09:46.640Z,39.75
2022-12-08T18:12:22.253Z,39.65
2022-12-08T18:14:53.684Z,37.83
2022-12-08T18:17:23.242Z,36.67
2022-12-08T18:19:52.946Z,35.82
2022-12-08T18:22:23.575Z,36.75
2022-12-08T18:24:53.493Z,37.83
2022-12-08T18:27:23.430Z,38.66
2022-12-08T18:29:53.153Z,39.23
2022-12-08T18:32:24.964Z,39.20
2022-12-08T18:34:55.262Z,39.30
2022-12-08T18:37:25.009Z,38.98
2022-12-08T18:39:54.520Z,39.30
2022-12-08T18:42:24.015Z,39.43
2022-12-08T18:45:08.020Z,39.20
2022-12-08T18:47:41.945Z,38.87
2022-12-08T18:50:13.740Z,38.78
2022-12-08T18:52:44.245Z,38.79
2022-12-08T18:55:13.852Z,39.10
2022-12-08T18:57:44.366Z,39.03
2022-12-08T19:00:17.112Z,38.65
2022-12-08T19:02:47.228Z,38.51
2022-12-08T19:05:16.878Z,38.27
2022-12-08T19:07:46.899Z,38.39
2022-12-08T19:10:16.534Z,38.21
2022-12-08T19:12:46.088Z,37.52
2022-12-08T19:15:16.080Z,36.79
2022-12-08T19:17:45.729Z,36.16
2022-12-08T19:20:16.926Z,35.71
2022-12-08T19:22:46.885Z,35.52
2022-12-08T19:25:16.671Z,35.42
2022-12-08T19:27:47.955Z,35.48
2022-12-08T19:30:18.106Z,35.78
2022-12-08T19:32:47.643Z,35.78
2022-12-08T19:35:17.384Z,35.99
2022-12-08T19:37:46.949Z,36.29
2022-12-08T19:40:34.948Z,36.37
2022-12-08T19:43:22.791Z,36.29
2022-12-08T19:45:53.242Z,36.15
2022-12-08T19:48:23.118Z,35.97
2022-12-08T19:50:53.053Z,35.72
2022-12-08T19:53:22.647Z,35.53
2022-12-08T19:55:52.799Z,35.75
2022-12-08T19:58:22.344Z,35.97
2022-12-08T20:00:52.087Z,35.79
2022-12-08T20:03:22.924Z,35.46
2022-12-08T20:05:56.177Z,35.24
2022-12-08T20:08:26.039Z,35.25
2022-12-08T20:10:57.143Z,35.37
2022-12-08T20:13:44.899Z,35.30
2022-12-08T20:16:16.006Z,35.00
2022-12-08T20:18:47.095Z,34.81
2022-12-08T20:21:17.329Z,34.54
2022-12-08T20:23:49.741Z,34.37
2022-12-08T20:26:22.497Z,34.29
2022-12-08T20:28:52.739Z,34.50
2022-12-08T20:31:25.838Z,34.59
2022-12-08T20:33:56.306Z,34.46
2022-12-08T20:36:26.505Z,34.26
2022-12-08T20:38:56.877Z,34.16
2022-12-08T20:41:26.809Z,33.99
2022-12-08T20:43:56.541Z,33.91
2022-12-08T20:46:26.377Z,33.78
2022-12-08T20:49:01.325Z,33.58
2022-12-08T20:51:33.535Z,33.43
2022-12-08T20:54:05.580Z,33.26
2022-12-08T20:56:35.410Z,33.13
2022-12-08T20:59:05.205Z,33.03
2022-12-08T21:01:35.362Z,32.99
2022-12-08T21:04:05.679Z,33.04
2022-12-08T21:06:35.630Z,32.87
2022-12-08T21:09:05.881Z,32.77
2022-12-08T21:11:35.882Z,32.69
2022-12-08T21:14:06.001Z,32.70
2022-12-08T21:16:35.665Z,32.70
2022-12-08T21:19:05.806Z,32.59
2022-12-08T21:21:35.861Z,32.42
2022-12-08T21:24:06.300Z,32.22
2022-12-08T21:26:36.003Z,32.05
2022-12-08T21:29:06.309Z,31.90
2022-12-08T21:31:37.501Z,31.87
2022-12-08T21:34:08.295Z,31.85
2022-12-08T21:36:38.502Z,31.78
2022-12-08T21:39:13.784Z,31.51
2022-12-08T21:42:02.228Z,31.22
2022-12-08T21:44:32.078Z,30.93
2022-12-08T21:47:02.211Z,30.75
2022-12-08T21:49:32.372Z,30.49
2022-12-08T21:52:01.959Z,30.33
2022-12-08T21:54:31.548Z,30.21
2022-12-08T21:57:01.110Z,30.10
2022-12-08T21:59:30.927Z,29.94
2022-12-08T22:02:00.862Z,29.79
2022-12-08T22:04:33.178Z,29.70
2022-12-08T22:07:03.243Z,29.48
2022-12-08T22:09:33.010Z,29.41
2022-12-08T22:12:03.316Z,29.35
2022-12-08T22:14:33.230Z,29.31
2022-12-08T22:17:02.878Z,29.19
2022-12-08T22:19:33.384Z,29.05
2022-12-08T22:22:03.053Z,28.97
2022-12-08T22:24:32.949Z,28.90
2022-12-08T22:27:02.767Z,28.75
2022-12-08T22:29:33.189Z,28.73
2022-12-08T22:32:02.924Z,28.64
2022-12-08T22:34:32.469Z,28.56
2022-12-08T22:37:02.485Z,28.60
2022-12-08T22:39:32.170Z,28.63
2022-12-08T22:42:02.229Z,28.57
2022-12-08T22:44:32.014Z,28.52
2022-12-08T22:47:02.362Z,28.40
2022-12-08T22:49:32.915Z,28.35
2022-12-08T22:52:03.367Z,28.35
2022-12-08T22:54:33.087Z,28.31
2022-12-08T22:57:02.831Z,28.25
2022-12-08T22:59:50.855Z,28.12
2022-12-08T23:02:20.731Z,27.92
2022-12-08T23:04:51.035Z,27.80
2022-12-08T23:07:20.787Z,27.77
2022-12-08T23:09:50.323Z,27.75
2022-12-08T23:12:20.067Z,27.67
2022-12-08T23:14:49.994Z,27.61
2022-12-08T23:17:20.197Z,27.50
2022-12-08T23:19:50.051Z,27.40
2022-12-08T23:22:19.564Z,27.33
2022-12-08T23:24:49.076Z,27.30
2022-12-08T23:27:18.672Z,27.31
2022-12-08T23:29:48.346Z,27.20
2022-12-08T23:32:18.179Z,27.08
2022-12-08T23:34:49.067Z,26.99
2022-12-08T23:37:38.780Z,26.85
2022-12-08T23:40:09.363Z,26.78
2022-12-08T23:42:40.342Z,26.72
2022-12-08T23:45:11.585Z,26.76
2022-12-08T23:47:41.473Z,26.76
2022-12-08T23:50:11.692Z,26.72
2022-12-08T23:52:41.780Z,26.66
2022-12-08T23:55:12.636Z,26.56
2022-12-08T23:57:44.091Z,26.58
